sensor_id;sensor_type;location;lat;lon;timestamp;P1;durP1;ratioP1;P2;durP2;ratioP2
12950;SDS011;6540;50.858;7.232;2023-03-20T00:02:40;25.27;;;13.07;;
12950;SDS011;6540;50.858;7.232;2023-03-20T00:05:26;25.20;;;13.07;;
12950;SDS011;6540;50.858;7.232;2023-03-20T00:07:54;21.77;;;11.00;;
12950;SDS011;6540;50.858;7.232;2023-03-20T00:10:33;19.37;;;11.57;;
12950;SDS011;6540;50.858;7.232;2023-03-20T00:13:01;19.63;;;12.07;;
12950;SDS011;6540;50.858;7.232;2023-03-20T00:15:31;19.33;;;12.60;;
12950;SDS011;6540;50.858;7.232;2023-03-20T00:18:02;18.20;;;11.53;;
12950;SDS011;6540;50.858;7.232;2023-03-20T00:20:28;19.13;;;11.50;;
12950;SDS011;6540;50.858;7.232;2023-03-20T00:22:54;18.53;;;11.77;;
12950;SDS011;6540;50.858;7.232;2023-03-20T00:25:21;18.33;;;11.43;;
12950;SDS011;6540;50.858;7.232;2023-03-20T00:27:49;19.57;;;11.10;;
12950;SDS011;6540;50.858;7.232;2023-03-20T00:30:20;21.07;;;12.00;;
12950;SDS011;6540;50.858;7.232;2023-03-20T00:32:46;22.27;;;11.83;;
12950;SDS011;6540;50.858;7.232;2023-03-20T00:35:17;20.67;;;12.33;;
12950;SDS011;6540;50.858;7.232;2023-03-20T00:37:45;25.70;;;15.27;;
12950;SDS011;6540;50.858;7.232;2023-03-20T00:40:11;21.17;;;13.03;;
12950;SDS011;6540;50.858;7.232;2023-03-20T00:42:36;22.13;;;13.83;;
12950;SDS011;6540;50.858;7.232;2023-03-20T00:45:02;21.43;;;13.07;;
12950;SDS011;6540;50.858;7.232;2023-03-20T00:47:29;27.73;;;15.47;;
12950;SDS011;6540;50.858;7.232;2023-03-20T00:50:06;21.40;;;14.33;;
12950;SDS011;6540;50.858;7.232;2023-03-20T00:52:39;22.20;;;13.57;;
12950;SDS011;6540;50.858;7.232;2023-03-20T00:55:04;22.17;;;14.17;;
12950;SDS011;6540;50.858;7.232;2023-03-20T00:57:33;22.97;;;14.00;;
12950;SDS011;6540;50.858;7.232;2023-03-20T01:03:05;18.33;;;12.87;;
12950;SDS011;6540;50.858;7.232;2023-03-20T01:05:37;18.63;;;12.30;;
12950;SDS011;6540;50.858;7.232;2023-03-20T01:08:13;26.63;;;13.50;;
12950;SDS011;6540;50.858;7.232;2023-03-20T01:10:46;24.00;;;13.63;;
12950;SDS011;6540;50.858;7.232;2023-03-20T01:13:16;22.07;;;13.77;;
12950;SDS011;6540;50.858;7.232;2023-03-20T01:15:45;21.97;;;13.60;;
12950;SDS011;6540;50.858;7.232;2023-03-20T01:18:13;20.57;;;12.30;;
12950;SDS011;6540;50.858;7.232;2023-03-20T01:20:40;20.90;;;13.30;;
12950;SDS011;6540;50.858;7.232;2023-03-20T01:23:06;18.77;;;12.67;;
12950;SDS011;6540;50.858;7.232;2023-03-20T01:25:31;21.53;;;12.97;;
12950;SDS011;6540;50.858;7.232;2023-03-20T01:27:57;19.03;;;13.03;;
12950;SDS011;6540;50.858;7.232;2023-03-20T01:30:27;20.23;;;12.97;;
12950;SDS011;6540;50.858;7.232;2023-03-20T01:32:54;22.97;;;13.27;;
12950;SDS011;6540;50.858;7.232;2023-03-20T01:35:21;20.63;;;13.27;;
12950;SDS011;6540;50.858;7.232;2023-03-20T01:37:52;21.33;;;13.40;;
12950;SDS011;6540;50.858;7.232;2023-03-20T01:42:47;25.70;;;14.93;;
12950;SDS011;6540;50.858;7.232;2023-03-20T01:45:34;24.43;;;15.00;;
12950;SDS011;6540;50.858;7.232;2023-03-20T01:48:17;21.80;;;13.10;;
12950;SDS011;6540;50.858;7.232;2023-03-20T01:50:47;23.40;;;14.10;;
12950;SDS011;6540;50.858;7.232;2023-03-20T01:53:16;23.27;;;14.97;;
12950;SDS011;6540;50.858;7.232;2023-03-20T01:55:46;28.77;;;14.90;;
12950;SDS011;6540;50.858;7.232;2023-03-20T01:58:22;25.97;;;14.93;;
12950;SDS011;6540;50.858;7.232;2023-03-20T02:00:51;24.53;;;14.07;;
12950;SDS011;6540;50.858;7.232;2023-03-20T02:03:17;26.70;;;16.00;;
12950;SDS011;6540;50.858;7.232;2023-03-20T02:05:44;28.80;;;15.73;;
12950;SDS011;6540;50.858;7.232;2023-03-20T02:08:29;26.47;;;14.03;;
12950;SDS011;6540;50.858;7.232;2023-03-20T02:10:57;25.50;;;14.40;;
12950;SDS011;6540;50.858;7.232;2023-03-20T02:13:28;24.30;;;14.43;;
12950;SDS011;6540;50.858;7.232;2023-03-20T02:18:28;20.80;;;13.53;;
12950;SDS011;6540;50.858;7.232;2023-03-20T02:21:02;23.60;;;14.33;;
12950;SDS011;6540;50.858;7.232;2023-03-20T02:43:18;32.07;;;16.27;;
12950;SDS011;6540;50.858;7.232;2023-03-20T02:53:53;22.77;;;13.10;;
12950;SDS011;6540;50.858;7.232;2023-03-20T02:59:25;24.97;;;14.37;;
12950;SDS011;6540;50.858;7.232;2023-03-20T03:02:19;28.80;;;15.50;;
12950;SDS011;6540;50.858;7.232;2023-03-20T03:04:58;25.90;;;15.20;;
12950;SDS011;6540;50.858;7.232;2023-03-20T03:07:29;23.67;;;14.60;;
12950;SDS011;6540;50.858;7.232;2023-03-20T03:10:02;24.77;;;14.70;;
12950;SDS011;6540;50.858;7.232;2023-03-20T03:12:34;26.07;;;14.77;;
12950;SDS011;6540;50.858;7.232;2023-03-20T03:15:06;21.47;;;14.00;;
12950;SDS011;6540;50.858;7.232;2023-03-20T03:17:40;24.63;;;14.17;;
12950;SDS011;6540;50.858;7.232;2023-03-20T03:20:13;24.07;;;13.60;;
12950;SDS011;6540;50.858;7.232;2023-03-20T03:22:46;25.60;;;13.90;;
12950;SDS011;6540;50.858;7.232;2023-03-20T03:25:12;24.27;;;13.53;;
12950;SDS011;6540;50.858;7.232;2023-03-20T03:27:39;22.40;;;13.03;;
12950;SDS011;6540;50.858;7.232;2023-03-20T03:30:12;23.90;;;12.63;;
12950;SDS011;6540;50.858;7.232;2023-03-20T03:35:49;26.67;;;13.27;;
12950;SDS011;6540;50.858;7.232;2023-03-20T03:43:56;25.10;;;13.40;;
12950;SDS011;6540;50.858;7.232;2023-03-20T03:46:35;20.10;;;11.83;;
12950;SDS011;6540;50.858;7.232;2023-03-20T03:49:06;21.33;;;11.70;;
12950;SDS011;6540;50.858;7.232;2023-03-20T03:51:34;23.10;;;12.73;;
12950;SDS011;6540;50.858;7.232;2023-03-20T03:54:26;19.57;;;11.77;;
12950;SDS011;6540;50.858;7.232;2023-03-20T03:56:53;19.90;;;13.40;;
12950;SDS011;6540;50.858;7.232;2023-03-20T03:59:23;21.57;;;12.73;;
12950;SDS011;6540;50.858;7.232;2023-03-20T04:01:54;21.80;;;13.27;;
12950;SDS011;6540;50.858;7.232;2023-03-20T04:04:22;26.03;;;13.20;;
12950;SDS011;6540;50.858;7.232;2023-03-20T04:06:50;24.47;;;13.33;;
12950;SDS011;6540;50.858;7.232;2023-03-20T04:09:15;21.03;;;13.07;;
12950;SDS011;6540;50.858;7.232;2023-03-20T04:11:41;24.23;;;12.60;;
12950;SDS011;6540;50.858;7.232;2023-03-20T04:14:14;24.10;;;12.53;;
12950;SDS011;6540;50.858;7.232;2023-03-20T04:16:39;23.07;;;12.97;;
12950;SDS011;6540;50.858;7.232;2023-03-20T04:19:05;18.90;;;12.13;;
12950;SDS011;6540;50.858;7.232;2023-03-20T04:21:30;22.67;;;13.40;;
12950;SDS011;6540;50.858;7.232;2023-03-20T04:23:55;20.73;;;12.53;;
12950;SDS011;6540;50.858;7.232;2023-03-20T04:26:21;19.87;;;12.60;;
12950;SDS011;6540;50.858;7.232;2023-03-20T04:28:47;24.67;;;13.30;;
12950;SDS011;6540;50.858;7.232;2023-03-20T04:31:12;26.17;;;13.87;;
12950;SDS011;6540;50.858;7.232;2023-03-20T04:33:38;25.63;;;14.23;;
12950;SDS011;6540;50.858;7.232;2023-03-20T04:36:04;21.40;;;12.33;;
12950;SDS011;6540;50.858;7.232;2023-03-20T04:38:30;24.47;;;12.83;;
12950;SDS011;6540;50.858;7.232;2023-03-20T04:40:55;21.33;;;12.43;;
12950;SDS011;6540;50.858;7.232;2023-03-20T04:43:21;21.70;;;14.07;;
12950;SDS011;6540;50.858;7.232;2023-03-20T04:45:46;23.77;;;12.90;;
12950;SDS011;6540;50.858;7.232;2023-03-20T04:48:11;22.03;;;13.37;;
12950;SDS011;6540;50.858;7.232;2023-03-20T04:50:37;19.57;;;12.30;;
12950;SDS011;6540;50.858;7.232;2023-03-20T04:53:03;22.47;;;12.83;;
12950;SDS011;6540;50.858;7.232;2023-03-20T04:55:30;22.83;;;13.57;;
12950;SDS011;6540;50.858;7.232;2023-03-20T04:57:55;20.10;;;12.07;;
12950;SDS011;6540;50.858;7.232;2023-03-20T05:00:21;24.00;;;13.63;;
12950;SDS011;6540;50.858;7.232;2023-03-20T05:02:46;23.37;;;12.87;;
12950;SDS011;6540;50.858;7.232;2023-03-20T05:05:13;18.43;;;11.97;;
12950;SDS011;6540;50.858;7.232;2023-03-20T05:07:38;23.47;;;13.47;;
12950;SDS011;6540;50.858;7.232;2023-03-20T05:10:04;21.63;;;13.80;;
12950;SDS011;6540;50.858;7.232;2023-03-20T05:12:30;23.80;;;12.20;;
12950;SDS011;6540;50.858;7.232;2023-03-20T05:14:56;18.30;;;11.33;;
12950;SDS011;6540;50.858;7.232;2023-03-20T05:17:21;22.27;;;12.30;;
12950;SDS011;6540;50.858;7.232;2023-03-20T05:19:47;17.73;;;10.57;;
12950;SDS011;6540;50.858;7.232;2023-03-20T05:22:14;15.90;;;10.03;;
12950;SDS011;6540;50.858;7.232;2023-03-20T05:24:40;22.37;;;12.07;;
12950;SDS011;6540;50.858;7.232;2023-03-20T05:27:05;33.93;;;14.47;;
12950;SDS011;6540;50.858;7.232;2023-03-20T05:29:30;26.93;;;14.70;;
12950;SDS011;6540;50.858;7.232;2023-03-20T05:31:56;28.83;;;13.73;;
12950;SDS011;6540;50.858;7.232;2023-03-20T05:34:21;26.40;;;13.27;;
12950;SDS011;6540;50.858;7.232;2023-03-20T05:36:46;22.40;;;12.77;;
12950;SDS011;6540;50.858;7.232;2023-03-20T05:39:12;25.90;;;14.30;;
12950;SDS011;6540;50.858;7.232;2023-03-20T05:41:37;34.30;;;15.47;;
12950;SDS011;6540;50.858;7.232;2023-03-20T05:44:03;30.07;;;15.77;;
12950;SDS011;6540;50.858;7.232;2023-03-20T05:46:28;24.50;;;15.10;;
12950;SDS011;6540;50.858;7.232;2023-03-20T05:48:54;23.17;;;12.97;;
12950;SDS011;6540;50.858;7.232;2023-03-20T05:51:20;26.30;;;15.77;;
12950;SDS011;6540;50.858;7.232;2023-03-20T05:53:45;31.97;;;16.53;;
12950;SDS011;6540;50.858;7.232;2023-03-20T05:56:10;22.73;;;12.27;;
12950;SDS011;6540;50.858;7.232;2023-03-20T05:58:36;22.73;;;13.53;;
12950;SDS011;6540;50.858;7.232;2023-03-20T06:01:01;45.90;;;21.97;;
12950;SDS011;6540;50.858;7.232;2023-03-20T06:03:27;46.87;;;21.57;;
12950;SDS011;6540;50.858;7.232;2023-03-20T06:05:52;26.50;;;14.50;;
12950;SDS011;6540;50.858;7.232;2023-03-20T06:08:17;16.43;;;10.77;;
12950;SDS011;6540;50.858;7.232;2023-03-20T06:10:43;16.90;;;10.63;;
12950;SDS011;6540;50.858;7.232;2023-03-20T06:13:08;20.10;;;10.07;;
12950;SDS011;6540;50.858;7.232;2023-03-20T06:15:33;15.90;;;10.50;;
12950;SDS011;6540;50.858;7.232;2023-03-20T06:17:59;15.87;;;9.53;;
12950;SDS011;6540;50.858;7.232;2023-03-20T06:20:24;14.37;;;9.27;;
12950;SDS011;6540;50.858;7.232;2023-03-20T06:22:50;16.33;;;8.73;;
12950;SDS011;6540;50.858;7.232;2023-03-20T06:25:16;18.53;;;9.67;;
12950;SDS011;6540;50.858;7.232;2023-03-20T06:27:42;17.37;;;10.90;;
12950;SDS011;6540;50.858;7.232;2023-03-20T06:30:08;28.07;;;13.97;;
12950;SDS011;6540;50.858;7.232;2023-03-20T06:32:34;28.63;;;13.60;;
12950;SDS011;6540;50.858;7.232;2023-03-20T06:34:59;27.67;;;13.00;;
12950;SDS011;6540;50.858;7.232;2023-03-20T06:37:25;24.10;;;13.13;;
12950;SDS011;6540;50.858;7.232;2023-03-20T06:39:51;28.17;;;14.33;;
12950;SDS011;6540;50.858;7.232;2023-03-20T06:42:16;32.43;;;15.63;;
12950;SDS011;6540;50.858;7.232;2023-03-20T06:44:42;36.13;;;16.47;;
12950;SDS011;6540;50.858;7.232;2023-03-20T06:47:08;47.00;;;19.57;;
12950;SDS011;6540;50.858;7.232;2023-03-20T06:49:33;84.57;;;34.27;;
12950;SDS011;6540;50.858;7.232;2023-03-20T06:51:59;93.20;;;37.70;;
12950;SDS011;6540;50.858;7.232;2023-03-20T06:54:25;72.83;;;31.33;;
12950;SDS011;6540;50.858;7.232;2023-03-20T06:56:51;53.87;;;24.07;;
12950;SDS011;6540;50.858;7.232;2023-03-20T06:59:16;41.27;;;21.17;;
12950;SDS011;6540;50.858;7.232;2023-03-20T07:01:42;25.13;;;13.33;;
12950;SDS011;6540;50.858;7.232;2023-03-20T07:04:07;20.23;;;11.63;;
12950;SDS011;6540;50.858;7.232;2023-03-20T07:06:33;21.03;;;12.63;;
12950;SDS011;6540;50.858;7.232;2023-03-20T07:08:58;20.80;;;11.47;;
12950;SDS011;6540;50.858;7.232;2023-03-20T07:11:25;17.40;;;11.17;;
12950;SDS011;6540;50.858;7.232;2023-03-20T07:13:51;16.07;;;10.73;;
12950;SDS011;6540;50.858;7.232;2023-03-20T07:16:17;17.73;;;11.10;;
12950;SDS011;6540;50.858;7.232;2023-03-20T07:18:42;17.10;;;11.23;;
12950;SDS011;6540;50.858;7.232;2023-03-20T07:21:07;23.83;;;12.53;;
12950;SDS011;6540;50.858;7.232;2023-03-20T07:23:33;17.50;;;12.17;;
12950;SDS011;6540;50.858;7.232;2023-03-20T07:25:59;19.50;;;11.40;;
12950;SDS011;6540;50.858;7.232;2023-03-20T07:28:24;19.20;;;11.00;;
12950;SDS011;6540;50.858;7.232;2023-03-20T07:30:51;20.07;;;11.27;;
12950;SDS011;6540;50.858;7.232;2023-03-20T07:33:16;17.90;;;10.63;;
12950;SDS011;6540;50.858;7.232;2023-03-20T07:35:42;18.50;;;11.57;;
12950;SDS011;6540;50.858;7.232;2023-03-20T07:38:07;18.50;;;10.13;;
12950;SDS011;6540;50.858;7.232;2023-03-20T07:40:33;17.43;;;11.10;;
12950;SDS011;6540;50.858;7.232;2023-03-20T07:42:58;17.33;;;10.47;;
12950;SDS011;6540;50.858;7.232;2023-03-20T07:45:25;20.43;;;10.60;;
12950;SDS011;6540;50.858;7.232;2023-03-20T07:47:50;17.77;;;11.47;;
12950;SDS011;6540;50.858;7.232;2023-03-20T07:50:16;15.33;;;10.20;;
12950;SDS011;6540;50.858;7.232;2023-03-20T07:52:45;20.77;;;10.97;;
12950;SDS011;6540;50.858;7.232;2023-03-20T07:55:14;15.10;;;9.27;;
12950;SDS011;6540;50.858;7.232;2023-03-20T07:57:40;16.10;;;9.07;;
12950;SDS011;6540;50.858;7.232;2023-03-20T08:00:06;13.70;;;8.80;;
12950;SDS011;6540;50.858;7.232;2023-03-20T08:02:32;17.73;;;10.33;;
12950;SDS011;6540;50.858;7.232;2023-03-20T08:04:58;17.07;;;10.53;;
12950;SDS011;6540;50.858;7.232;2023-03-20T08:07:24;13.87;;;8.67;;
12950;SDS011;6540;50.858;7.232;2023-03-20T08:09:50;14.50;;;9.33;;
12950;SDS011;6540;50.858;7.232;2023-03-20T08:12:16;14.13;;;9.63;;
12950;SDS011;6540;50.858;7.232;2023-03-20T08:14:42;11.67;;;8.50;;
12950;SDS011;6540;50.858;7.232;2023-03-20T08:17:08;12.97;;;9.20;;
12950;SDS011;6540;50.858;7.232;2023-03-20T08:19:33;11.73;;;7.97;;
12950;SDS011;6540;50.858;7.232;2023-03-20T08:22:00;10.80;;;7.70;;
12950;SDS011;6540;50.858;7.232;2023-03-20T08:24:25;12.00;;;8.33;;
12950;SDS011;6540;50.858;7.232;2023-03-20T08:26:51;13.03;;;8.20;;
12950;SDS011;6540;50.858;7.232;2023-03-20T08:29:16;14.07;;;8.37;;
12950;SDS011;6540;50.858;7.232;2023-03-20T08:31:43;10.67;;;6.43;;
12950;SDS011;6540;50.858;7.232;2023-03-20T08:34:09;12.23;;;6.27;;
12950;SDS011;6540;50.858;7.232;2023-03-20T08:36:34;10.03;;;6.50;;
12950;SDS011;6540;50.858;7.232;2023-03-20T08:39:00;12.23;;;8.80;;
12950;SDS011;6540;50.858;7.232;2023-03-20T08:41:25;10.67;;;7.00;;
12950;SDS011;6540;50.858;7.232;2023-03-20T08:43:51;10.70;;;6.10;;
12950;SDS011;6540;50.858;7.232;2023-03-20T08:46:16;7.80;;;4.93;;
12950;SDS011;6540;50.858;7.232;2023-03-20T08:48:41;5.33;;;4.47;;
12950;SDS011;6540;50.858;7.232;2023-03-20T08:51:07;6.20;;;4.33;;
12950;SDS011;6540;50.858;7.232;2023-03-20T08:53:33;11.03;;;5.43;;
12950;SDS011;6540;50.858;7.232;2023-03-20T08:56:00;8.70;;;5.20;;
12950;SDS011;6540;50.858;7.232;2023-03-20T08:58:26;7.83;;;5.40;;
12950;SDS011;6540;50.858;7.232;2023-03-20T09:00:51;7.90;;;5.13;;
12950;SDS011;6540;50.858;7.232;2023-03-20T09:03:18;9.73;;;5.03;;
12950;SDS011;6540;50.858;7.232;2023-03-20T09:05:47;5.57;;;3.57;;
12950;SDS011;6540;50.858;7.232;2023-03-20T09:08:15;7.90;;;4.30;;
12950;SDS011;6540;50.858;7.232;2023-03-20T09:10:40;5.23;;;3.30;;
12950;SDS011;6540;50.858;7.232;2023-03-20T09:13:05;6.47;;;4.03;;
12950;SDS011;6540;50.858;7.232;2023-03-20T09:15:31;3.80;;;3.20;;
12950;SDS011;6540;50.858;7.232;2023-03-20T09:17:58;4.10;;;2.40;;
12950;SDS011;6540;50.858;7.232;2023-03-20T09:20:23;5.87;;;2.77;;
12950;SDS011;6540;50.858;7.232;2023-03-20T09:22:49;9.57;;;3.57;;
12950;SDS011;6540;50.858;7.232;2023-03-20T09:25:14;5.63;;;3.23;;
12950;SDS011;6540;50.858;7.232;2023-03-20T09:27:40;4.10;;;3.30;;
12950;SDS011;6540;50.858;7.232;2023-03-20T09:30:06;4.10;;;3.20;;
12950;SDS011;6540;50.858;7.232;2023-03-20T09:32:32;5.50;;;3.50;;
12950;SDS011;6540;50.858;7.232;2023-03-20T09:34:59;5.63;;;4.37;;
12950;SDS011;6540;50.858;7.232;2023-03-20T09:37:25;5.90;;;3.80;;
12950;SDS011;6540;50.858;7.232;2023-03-20T09:39:50;6.03;;;4.33;;
12950;SDS011;6540;50.858;7.232;2023-03-20T09:44:47;6.80;;;4.07;;
12950;SDS011;6540;50.858;7.232;2023-03-20T09:47:30;9.13;;;4.30;;
12950;SDS011;6540;50.858;7.232;2023-03-20T09:55:50;4.53;;;3.93;;
12950;SDS011;6540;50.858;7.232;2023-03-20T09:58:24;7.63;;;4.70;;
12950;SDS011;6540;50.858;7.232;2023-03-20T10:00:57;7.77;;;4.00;;
12950;SDS011;6540;50.858;7.232;2023-03-20T10:06:19;7.00;;;4.13;;
12950;SDS011;6540;50.858;7.232;2023-03-20T10:08:44;6.40;;;4.00;;
12950;SDS011;6540;50.858;7.232;2023-03-20T10:19:56;4.57;;;3.80;;
12950;SDS011;6540;50.858;7.232;2023-03-20T10:28:02;7.20;;;4.53;;
12950;SDS011;6540;50.858;7.232;2023-03-20T10:30:55;7.67;;;4.43;;
12950;SDS011;6540;50.858;7.232;2023-03-20T10:39:11;4.30;;;3.80;;
12950;SDS011;6540;50.858;7.232;2023-03-20T10:41:38;4.97;;;3.90;;
12950;SDS011;6540;50.858;7.232;2023-03-20T10:44:54;4.43;;;3.77;;
12950;SDS011;6540;50.858;7.232;2023-03-20T10:47:00;6.80;;;3.90;;
12950;SDS011;6540;50.858;7.232;2023-03-20T10:49:36;4.63;;;4.00;;
12950;SDS011;6540;50.858;7.232;2023-03-20T10:52:06;7.27;;;4.27;;
12950;SDS011;6540;50.858;7.232;2023-03-20T10:54:40;4.17;;;3.77;;
12950;SDS011;6540;50.858;7.232;2023-03-20T10:57:19;7.90;;;4.70;;
12950;SDS011;6540;50.858;7.232;2023-03-20T10:59:48;5.50;;;3.77;;
12950;SDS011;6540;50.858;7.232;2023-03-20T11:02:15;5.23;;;3.67;;
12950;SDS011;6540;50.858;7.232;2023-03-20T11:04:42;8.50;;;4.77;;
12950;SDS011;6540;50.858;7.232;2023-03-20T11:09:50;6.50;;;4.50;;
12950;SDS011;6540;50.858;7.232;2023-03-20T11:12:34;4.47;;;4.00;;
12950;SDS011;6540;50.858;7.232;2023-03-20T11:15:03;5.43;;;4.20;;
12950;SDS011;6540;50.858;7.232;2023-03-20T11:17:49;5.60;;;4.10;;
12950;SDS011;6540;50.858;7.232;2023-03-20T11:20:15;6.10;;;4.03;;
12950;SDS011;6540;50.858;7.232;2023-03-20T11:22:40;7.17;;;3.77;;
12950;SDS011;6540;50.858;7.232;2023-03-20T11:25:06;6.97;;;3.73;;
12950;SDS011;6540;50.858;7.232;2023-03-20T11:27:46;4.07;;;3.33;;
12950;SDS011;6540;50.858;7.232;2023-03-20T11:30:12;4.30;;;3.50;;
12950;SDS011;6540;50.858;7.232;2023-03-20T11:32:45;6.20;;;4.30;;
12950;SDS011;6540;50.858;7.232;2023-03-20T11:35:17;4.43;;;4.03;;
12950;SDS011;6540;50.858;7.232;2023-03-20T11:37:44;4.27;;;3.87;;
12950;SDS011;6540;50.858;7.232;2023-03-20T11:40:25;6.27;;;4.10;;
12950;SDS011;6540;50.858;7.232;2023-03-20T11:45:36;7.10;;;3.83;;
12950;SDS011;6540;50.858;7.232;2023-03-20T11:48:20;9.03;;;4.27;;
12950;SDS011;6540;50.858;7.232;2023-03-20T11:53:34;4.53;;;3.70;;
12950;SDS011;6540;50.858;7.232;2023-03-20T11:58:37;7.53;;;3.90;;
12950;SDS011;6540;50.858;7.232;2023-03-20T12:01:13;6.57;;;4.40;;
12950;SDS011;6540;50.858;7.232;2023-03-20T12:04:24;4.07;;;3.67;;
12950;SDS011;6540;50.858;7.232;2023-03-20T12:06:34;6.10;;;4.23;;
12950;SDS011;6540;50.858;7.232;2023-03-20T12:09:11;6.03;;;4.17;;
12950;SDS011;6540;50.858;7.232;2023-03-20T12:12:09;4.67;;;3.33;;
12950;SDS011;6540;50.858;7.232;2023-03-20T12:14:51;5.43;;;3.50;;
12950;SDS011;6540;50.858;7.232;2023-03-20T12:20:49;6.67;;;2.20;;
12950;SDS011;6540;50.858;7.232;2023-03-20T12:29:04;4.97;;;2.67;;
12950;SDS011;6540;50.858;7.232;2023-03-20T12:31:37;5.37;;;2.93;;
12950;SDS011;6540;50.858;7.232;2023-03-20T12:36:56;6.00;;;2.53;;
12950;SDS011;6540;50.858;7.232;2023-03-20T12:39:22;4.27;;;2.17;;
12950;SDS011;6540;50.858;7.232;2023-03-20T12:45:04;4.00;;;2.37;;
12950;SDS011;6540;50.858;7.232;2023-03-20T12:52:39;1.63;;;1.50;;
12950;SDS011;6540;50.858;7.232;2023-03-20T12:55:24;1.90;;;1.37;;
12950;SDS011;6540;50.858;7.232;2023-03-20T13:09:23;2.23;;;1.50;;
12950;SDS011;6540;50.858;7.232;2023-03-20T13:12:14;2.90;;;1.63;;
12950;SDS011;6540;50.858;7.232;2023-03-20T13:14:44;3.30;;;1.33;;
12950;SDS011;6540;50.858;7.232;2023-03-20T13:17:21;3.37;;;1.67;;
12950;SDS011;6540;50.858;7.232;2023-03-20T13:22:52;2.50;;;1.50;;
12950;SDS011;6540;50.858;7.232;2023-03-20T13:33:55;2.00;;;1.60;;
12950;SDS011;6540;50.858;7.232;2023-03-20T13:36:35;2.53;;;1.93;;
12950;SDS011;6540;50.858;7.232;2023-03-20T13:39:28;4.33;;;1.40;;
12950;SDS011;6540;50.858;7.232;2023-03-20T13:41:58;2.33;;;1.40;;
12950;SDS011;6540;50.858;7.232;2023-03-20T13:44:28;2.43;;;1.53;;
12950;SDS011;6540;50.858;7.232;2023-03-20T13:49:42;1.50;;;1.40;;
12950;SDS011;6540;50.858;7.232;2023-03-20T13:52:21;1.93;;;1.53;;
12950;SDS011;6540;50.858;7.232;2023-03-20T14:00:26;3.20;;;1.70;;
12950;SDS011;6540;50.858;7.232;2023-03-20T14:03:09;5.93;;;2.00;;
12950;SDS011;6540;50.858;7.232;2023-03-20T14:05:42;3.83;;;1.93;;
12950;SDS011;6540;50.858;7.232;2023-03-20T14:13:29;4.77;;;1.80;;
12950;SDS011;6540;50.858;7.232;2023-03-20T14:15:55;4.67;;;1.97;;
12950;SDS011;6540;50.858;7.232;2023-03-20T14:18:26;5.73;;;1.93;;
12950;SDS011;6540;50.858;7.232;2023-03-20T14:21:01;3.43;;;1.57;;
12950;SDS011;6540;50.858;7.232;2023-03-20T14:26:29;2.70;;;1.67;;
12950;SDS011;6540;50.858;7.232;2023-03-20T14:31:34;3.67;;;1.60;;
12950;SDS011;6540;50.858;7.232;2023-03-20T14:50:17;2.93;;;1.40;;
12950;SDS011;6540;50.858;7.232;2023-03-20T14:57:46;1.63;;;1.20;;
12950;SDS011;6540;50.858;7.232;2023-03-20T15:00:54;1.70;;;1.13;;
12950;SDS011;6540;50.858;7.232;2023-03-20T15:03:10;4.17;;;1.37;;
12950;SDS011;6540;50.858;7.232;2023-03-20T15:05:39;1.77;;;1.20;;
12950;SDS011;6540;50.858;7.232;2023-03-20T15:08:14;3.43;;;1.50;;
12950;SDS011;6540;50.858;7.232;2023-03-20T15:10:51;3.63;;;1.67;;
12950;SDS011;6540;50.858;7.232;2023-03-20T15:13:19;3.53;;;1.90;;
12950;SDS011;6540;50.858;7.232;2023-03-20T15:15:56;2.50;;;1.90;;
12950;SDS011;6540;50.858;7.232;2023-03-20T15:18:24;3.47;;;1.63;;
12950;SDS011;6540;50.858;7.232;2023-03-20T15:20:51;3.03;;;1.57;;
12950;SDS011;6540;50.858;7.232;2023-03-20T15:23:19;1.77;;;1.50;;
12950;SDS011;6540;50.858;7.232;2023-03-20T15:25:45;1.87;;;1.23;;
12950;SDS011;6540;50.858;7.232;2023-03-20T15:28:16;3.03;;;1.33;;
12950;SDS011;6540;50.858;7.232;2023-03-20T15:30:51;2.47;;;1.40;;
12950;SDS011;6540;50.858;7.232;2023-03-20T15:36:10;4.53;;;1.60;;
12950;SDS011;6540;50.858;7.232;2023-03-20T15:38:41;2.07;;;1.50;;
12950;SDS011;6540;50.858;7.232;2023-03-20T15:41:21;3.73;;;1.37;;
12950;SDS011;6540;50.858;7.232;2023-03-20T15:43:52;2.80;;;1.33;;
12950;SDS011;6540;50.858;7.232;2023-03-20T15:46:17;2.63;;;1.53;;
12950;SDS011;6540;50.858;7.232;2023-03-20T15:48:47;4.87;;;1.70;;
12950;SDS011;6540;50.858;7.232;2023-03-20T15:51:13;4.57;;;1.73;;
12950;SDS011;6540;50.858;7.232;2023-03-20T15:53:38;4.57;;;1.60;;
12950;SDS011;6540;50.858;7.232;2023-03-20T15:56:05;7.43;;;1.67;;
12950;SDS011;6540;50.858;7.232;2023-03-20T15:58:33;2.30;;;1.40;;
12950;SDS011;6540;50.858;7.232;2023-03-20T16:01:00;4.10;;;1.60;;
12950;SDS011;6540;50.858;7.232;2023-03-20T16:03:27;2.43;;;1.47;;
12950;SDS011;6540;50.858;7.232;2023-03-20T16:05:58;2.87;;;1.20;;
12950;SDS011;6540;50.858;7.232;2023-03-20T16:08:28;3.70;;;1.73;;
12950;SDS011;6540;50.858;7.232;2023-03-20T16:10:57;4.50;;;1.63;;
12950;SDS011;6540;50.858;7.232;2023-03-20T16:13:25;3.87;;;1.70;;
12950;SDS011;6540;50.858;7.232;2023-03-20T16:15:55;3.13;;;1.57;;
12950;SDS011;6540;50.858;7.232;2023-03-20T16:18:21;2.53;;;1.60;;
12950;SDS011;6540;50.858;7.232;2023-03-20T16:20:51;4.07;;;1.80;;
12950;SDS011;6540;50.858;7.232;2023-03-20T16:23:43;3.63;;;1.47;;
12950;SDS011;6540;50.858;7.232;2023-03-20T16:26:11;2.63;;;1.67;;
12950;SDS011;6540;50.858;7.232;2023-03-20T16:28:44;3.37;;;1.47;;
12950;SDS011;6540;50.858;7.232;2023-03-20T16:31:12;4.57;;;1.87;;
12950;SDS011;6540;50.858;7.232;2023-03-20T16:33:42;2.20;;;1.13;;
12950;SDS011;6540;50.858;7.232;2023-03-20T16:36:14;5.03;;;1.97;;
12950;SDS011;6540;50.858;7.232;2023-03-20T16:38:52;2.53;;;1.50;;
12950;SDS011;6540;50.858;7.232;2023-03-20T16:41:41;5.30;;;2.00;;
12950;SDS011;6540;50.858;7.232;2023-03-20T16:44:12;5.00;;;2.00;;
12950;SDS011;6540;50.858;7.232;2023-03-20T16:52:24;1.63;;;1.47;;
12950;SDS011;6540;50.858;7.232;2023-03-20T16:54:54;3.03;;;2.17;;
12950;SDS011;6540;50.858;7.232;2023-03-20T16:57:21;6.27;;;2.40;;
12950;SDS011;6540;50.858;7.232;2023-03-20T16:59:49;3.43;;;2.00;;
12950;SDS011;6540;50.858;7.232;2023-03-20T17:02:23;4.80;;;2.23;;
12950;SDS011;6540;50.858;7.232;2023-03-20T17:04:56;4.60;;;1.80;;
12950;SDS011;6540;50.858;7.232;2023-03-20T17:07:25;1.60;;;1.50;;
12950;SDS011;6540;50.858;7.232;2023-03-20T17:12:17;4.10;;;1.90;;
12950;SDS011;6540;50.858;7.232;2023-03-20T17:14:45;3.33;;;1.87;;
12950;SDS011;6540;50.858;7.232;2023-03-20T17:17:14;3.97;;;1.97;;
12950;SDS011;6540;50.858;7.232;2023-03-20T17:19:41;4.57;;;1.90;;
12950;SDS011;6540;50.858;7.232;2023-03-20T17:22:15;5.13;;;2.37;;
12950;SDS011;6540;50.858;7.232;2023-03-20T17:24:42;4.67;;;2.03;;
12950;SDS011;6540;50.858;7.232;2023-03-20T17:27:08;6.63;;;2.60;;
12950;SDS011;6540;50.858;7.232;2023-03-20T17:29:36;5.37;;;2.70;;
12950;SDS011;6540;50.858;7.232;2023-03-20T17:32:04;6.03;;;2.07;;
12950;SDS011;6540;50.858;7.232;2023-03-20T17:34:34;4.23;;;2.07;;
12950;SDS011;6540;50.858;7.232;2023-03-20T17:37:00;2.80;;;1.80;;
12950;SDS011;6540;50.858;7.232;2023-03-20T17:39:27;3.00;;;1.90;;
12950;SDS011;6540;50.858;7.232;2023-03-20T17:41:53;5.97;;;2.03;;
12950;SDS011;6540;50.858;7.232;2023-03-20T17:44:19;6.47;;;2.27;;
12950;SDS011;6540;50.858;7.232;2023-03-20T17:46:45;3.40;;;1.97;;
12950;SDS011;6540;50.858;7.232;2023-03-20T17:49:14;8.10;;;2.60;;
12950;SDS011;6540;50.858;7.232;2023-03-20T17:51:41;3.57;;;2.43;;
12950;SDS011;6540;50.858;7.232;2023-03-20T17:54:07;7.27;;;4.53;;
12950;SDS011;6540;50.858;7.232;2023-03-20T17:56:33;6.10;;;4.70;;
12950;SDS011;6540;50.858;7.232;2023-03-20T17:58:59;7.27;;;2.43;;
12950;SDS011;6540;50.858;7.232;2023-03-20T18:01:25;2.70;;;2.50;;
12950;SDS011;6540;50.858;7.232;2023-03-20T18:03:51;3.37;;;2.57;;
12950;SDS011;6540;50.858;7.232;2023-03-20T18:06:23;2.97;;;2.63;;